Osceola, Indiana
Current Conditions -  °F | °C
As of 2:25 PM on Monday 20 Oct 2014 (Local Time) from KSBN Reporting Station
Scattered Clouds Scattered Clouds  
Wind Chill: 16°   Ceiling: Unl
Heat Index: 16°   Visibility: 10mi
Dew Point:   Wind: 10mph
Humidity: 67%   Direction: 300°WNW
Pressure: 29.83"   Gusts: NA
Location:  41.67°N, 86.08°W
Report Text: KSBN 201825Z 30009KT 10SM SCT024 16/09 A2983 RMK AO2 T01560094
Loading
Personal Weather Stations






























Interactive Weather Map
Tropical Storm Tracking
New forecast layout! Learn more

10-Day Weather Forecast

Advertisements
Track Severe Weather on mobile